createdAt,value
2023-04-14T00:01:45.993Z,7.30
2023-04-14T00:04:13.121Z,7.40
2023-04-14T00:06:39.995Z,7.30
2023-04-14T00:09:06.801Z,7.30
2023-04-14T00:11:33.626Z,7.20
2023-04-14T00:14:03.072Z,7.20
2023-04-14T00:16:32.922Z,7.20
2023-04-14T00:19:00.032Z,7.20
2023-04-14T00:21:27.128Z,7.20
2023-04-14T00:23:53.903Z,7.20
2023-04-14T00:26:20.794Z,7.10
2023-04-14T00:28:47.713Z,7.10
2023-04-14T00:31:14.650Z,7.10
2023-04-14T00:33:41.516Z,7.10
2023-04-14T00:36:08.494Z,7.10
2023-04-14T00:38:35.339Z,7.10
2023-04-14T00:41:02.127Z,7.00
2023-04-14T00:43:28.925Z,6.80
2023-04-14T00:45:55.874Z,6.80
2023-04-14T00:48:22.860Z,6.80
2023-04-14T00:50:49.847Z,6.80
2023-04-14T00:53:17.426Z,6.80
2023-04-14T00:55:44.458Z,6.70
2023-04-14T00:58:11.508Z,6.70
2023-04-14T01:00:38.484Z,6.80
2023-04-14T01:03:06.518Z,6.80
2023-04-14T01:05:34.597Z,6.80
2023-04-14T01:08:03.506Z,6.80
2023-04-14T01:10:37.876Z,6.70
2023-04-14T01:13:07.573Z,6.80
2023-04-14T01:15:43.661Z,6.80
2023-04-14T01:18:15.709Z,6.70
2023-04-14T01:20:45.802Z,6.70
2023-04-14T01:23:41.078Z,6.70
2023-04-14T01:26:26.113Z,6.60
2023-04-14T01:29:23.606Z,6.60
2023-04-14T01:32:01.057Z,6.60
2023-04-14T01:34:46.168Z,6.50
2023-04-14T01:37:17.895Z,6.50
2023-04-14T01:39:52.976Z,6.50
2023-04-14T01:42:23.786Z,6.40
2023-04-14T01:44:57.171Z,6.40
2023-04-14T01:47:26.017Z,6.40
2023-04-14T01:49:54.101Z,6.30
2023-04-14T01:52:22.432Z,6.30
2023-04-14T01:54:52.450Z,6.20
2023-04-14T01:57:22.886Z,6.20
2023-04-14T01:59:53.048Z,6.30
2023-04-14T02:02:21.417Z,6.20
2023-04-14T02:04:49.910Z,6.20
2023-04-14T02:07:17.651Z,6.30
2023-04-14T02:09:46.071Z,6.20
2023-04-14T02:12:13.047Z,6.10
2023-04-14T02:14:42.642Z,6.00
2023-04-14T02:17:13.904Z,6.10
2023-04-14T02:19:43.981Z,6.00
2023-04-14T02:22:10.869Z,6.00
2023-04-14T02:24:37.827Z,6.00
2023-04-14T02:27:11.242Z,6.00
2023-04-14T02:29:41.903Z,5.90
2023-04-14T02:32:17.440Z,5.90
2023-04-14T02:35:01.361Z,6.00
2023-04-14T02:37:39.138Z,6.00
2023-04-14T02:40:15.409Z,6.00
2023-04-14T02:42:48.211Z,6.00
2023-04-14T02:45:27.784Z,6.00
2023-04-14T02:47:58.354Z,5.90
2023-04-14T02:50:27.191Z,5.80
2023-04-14T02:52:55.988Z,5.80
2023-04-14T02:55:23.622Z,5.80
2023-04-14T02:57:51.677Z,5.90
2023-04-14T03:00:19.434Z,5.90
2023-04-14T03:06:27.857Z,5.90
2023-04-14T03:08:55.221Z,5.80
2023-04-14T03:11:22.789Z,5.80
2023-04-14T03:13:54.652Z,5.80
2023-04-14T03:16:22.365Z,5.80
2023-04-14T03:18:51.048Z,5.80
2023-04-14T03:21:19.381Z,5.80
2023-04-14T03:23:48.569Z,5.90
2023-04-14T03:26:19.146Z,5.80
2023-04-14T03:28:48.573Z,5.90
2023-04-14T03:31:18.806Z,5.80
2023-04-14T03:33:49.230Z,5.80
2023-04-14T03:36:18.017Z,5.80
2023-04-14T03:38:49.439Z,5.70
2023-04-14T03:41:19.643Z,5.70
2023-04-14T03:43:48.303Z,5.80
2023-04-14T03:46:15.355Z,5.70
2023-04-14T03:48:44.390Z,5.70
2023-04-14T03:51:14.100Z,5.70
2023-04-14T03:53:43.473Z,5.70
2023-04-14T03:56:13.561Z,5.70
2023-04-14T03:58:43.970Z,5.70
2023-04-14T04:01:12.178Z,5.80
2023-04-14T04:03:40.104Z,5.80
2023-04-14T04:06:07.929Z,5.80
2023-04-14T04:08:36.405Z,5.90
2023-04-14T04:11:07.595Z,5.90
2023-04-14T04:13:36.764Z,5.80
2023-04-14T04:16:06.969Z,5.70
2023-04-14T04:18:38.476Z,5.60
2023-04-14T04:21:07.031Z,5.60
2023-04-14T04:23:35.618Z,5.50
2023-04-14T04:26:02.586Z,5.40
2023-04-14T04:28:29.618Z,5.50
2023-04-14T04:30:59.112Z,5.60
2023-04-14T04:33:28.789Z,5.60
2023-04-14T04:35:56.839Z,5.60
2023-04-14T04:38:24.113Z,5.60
2023-04-14T04:40:51.038Z,5.60
2023-04-14T04:43:19.287Z,5.50
2023-04-14T04:46:04.649Z,5.60
2023-04-14T04:48:31.508Z,5.50
2023-04-14T04:50:58.265Z,5.50
2023-04-14T04:53:25.147Z,5.60
2023-04-14T04:55:51.998Z,5.60
2023-04-14T04:58:18.806Z,5.80
2023-04-14T05:00:46.612Z,5.90
2023-04-14T05:03:13.535Z,5.90
2023-04-14T05:05:40.770Z,5.90
2023-04-14T05:08:08.395Z,5.90
2023-04-14T05:10:37.098Z,5.80
2023-04-14T05:13:03.941Z,5.80
2023-04-14T05:15:30.763Z,5.80
2023-04-14T05:17:59.228Z,5.70
2023-04-14T05:20:26.352Z,5.90
2023-04-14T05:22:53.392Z,5.90
2023-04-14T05:25:20.242Z,5.90
2023-04-14T05:27:47.035Z,5.80
2023-04-14T05:30:13.949Z,5.80
2023-04-14T05:32:41.317Z,5.70
2023-04-14T05:35:08.877Z,5.80
2023-04-14T05:37:36.380Z,5.80
2023-04-14T05:40:04.162Z,5.90
2023-04-14T05:42:31.032Z,5.90
2023-04-14T05:44:57.991Z,6.00
2023-04-14T05:47:24.833Z,6.00
2023-04-14T05:49:51.785Z,5.90
2023-04-14T05:52:18.594Z,6.00
2023-04-14T05:54:45.449Z,6.10
2023-04-14T05:57:12.207Z,6.00
2023-04-14T05:59:38.967Z,6.20
2023-04-14T06:02:07.397Z,6.10
2023-04-14T06:04:34.512Z,6.00
2023-04-14T06:07:02.986Z,5.90
2023-04-14T06:09:29.918Z,5.90
2023-04-14T06:11:56.895Z,5.90
2023-04-14T06:14:23.844Z,6.10
2023-04-14T06:16:51.105Z,6.30
2023-04-14T06:19:18.867Z,6.40
2023-04-14T06:21:46.729Z,6.60
2023-04-14T06:24:13.653Z,7.00
2023-04-14T06:26:40.517Z,7.20
2023-04-14T06:29:07.940Z,7.30
2023-04-14T06:31:35.902Z,7.40
2023-04-14T06:34:02.849Z,7.50
2023-04-14T06:36:29.710Z,7.60
2023-04-14T06:38:57.290Z,7.70
2023-04-14T06:41:24.808Z,8.00
2023-04-14T06:43:51.557Z,7.90
2023-04-14T06:46:19.071Z,8.00
2023-04-14T06:48:45.910Z,8.30
2023-04-14T06:51:13.732Z,8.30
2023-04-14T06:53:40.838Z,8.60
2023-04-14T06:56:08.275Z,8.70
2023-04-14T06:58:35.230Z,8.60
2023-04-14T07:01:03.555Z,8.90
2023-04-14T07:03:31.374Z,9.20
2023-04-14T07:06:10.590Z,9.60
2023-04-14T07:08:38.794Z,9.50
2023-04-14T07:11:08.716Z,9.40
2023-04-14T07:13:36.305Z,9.70
2023-04-14T07:16:04.091Z,9.90
2023-04-14T07:18:31.887Z,9.90
2023-04-14T07:20:59.906Z,10.20
2023-04-14T07:23:27.362Z,9.90
2023-04-14T07:25:56.209Z,10.10
2023-04-14T07:28:24.386Z,10.40
2023-04-14T07:30:52.795Z,10.70
2023-04-14T07:33:20.312Z,10.60
2023-04-14T07:36:00.765Z,11.00
2023-04-14T07:38:28.720Z,11.10
2023-04-14T07:40:55.711Z,10.90
2023-04-14T07:43:23.184Z,11.20
2023-04-14T07:45:50.102Z,11.20
2023-04-14T07:48:19.497Z,11.30
2023-04-14T07:50:48.615Z,11.30
2023-04-14T07:53:15.466Z,11.60
2023-04-14T07:55:42.274Z,11.60
2023-04-14T07:58:09.103Z,11.40
2023-04-14T08:00:35.904Z,11.40
2023-04-14T08:03:03.319Z,11.20
2023-04-14T08:05:30.408Z,11.50
2023-04-14T08:07:57.302Z,11.80
2023-04-14T08:10:24.474Z,11.90
2023-04-14T08:12:51.423Z,11.80
2023-04-14T08:15:18.461Z,11.70
2023-04-14T08:17:45.709Z,12.00
2023-04-14T08:20:12.639Z,12.30
2023-04-14T08:22:39.482Z,12.40
2023-04-14T08:25:06.861Z,12.50
2023-04-14T08:27:33.608Z,12.50
2023-04-14T08:30:00.574Z,12.60
2023-04-14T08:32:28.392Z,12.90
2023-04-14T08:35:37.437Z,13.30
2023-04-14T08:37:42.520Z,13.00
2023-04-14T08:40:10.356Z,13.00
2023-04-14T08:42:37.662Z,13.20
2023-04-14T08:45:05.144Z,13.10
2023-04-14T08:47:35.522Z,12.90
2023-04-14T08:50:09.872Z,12.90
2023-04-14T08:52:39.780Z,12.90
2023-04-14T08:55:08.129Z,13.20
2023-04-14T08:57:35.315Z,13.50
2023-04-14T09:00:05.033Z,13.70
2023-04-14T09:02:35.912Z,13.80
2023-04-14T09:05:03.709Z,13.80
2023-04-14T09:07:31.218Z,13.80
2023-04-14T09:09:58.475Z,13.90
2023-04-14T09:12:27.525Z,14.10
2023-04-14T09:14:57.135Z,14.10
2023-04-14T09:17:26.624Z,14.40
2023-04-14T09:20:36.046Z,14.50
2023-04-14T09:22:40.600Z,14.10
2023-04-14T09:25:10.162Z,14.10
2023-04-14T09:27:37.753Z,14.40
2023-04-14T09:30:05.511Z,14.40
2023-04-14T09:32:32.963Z,14.30
2023-04-14T09:34:59.817Z,14.20
2023-04-14T09:37:26.772Z,13.50
2023-04-14T09:39:55.669Z,14.30
2023-04-14T09:42:41.038Z,14.50
2023-04-14T09:45:08.560Z,14.50
2023-04-14T09:47:35.819Z,14.20
2023-04-14T09:50:04.298Z,14.20
2023-04-14T09:52:41.980Z,14.00
2023-04-14T09:55:16.902Z,13.90
2023-04-14T09:57:47.450Z,14.10
2023-04-14T10:00:18.824Z,13.80
2023-04-14T10:02:56.042Z,13.80
2023-04-14T10:05:32.189Z,13.90
2023-04-14T10:08:05.844Z,13.60
2023-04-14T10:10:32.756Z,13.40
2023-04-14T10:13:00.990Z,13.30
2023-04-14T10:15:28.231Z,13.80
2023-04-14T10:17:56.599Z,14.00
2023-04-14T10:20:24.847Z,14.10
2023-04-14T10:22:52.819Z,14.50
2023-04-14T10:25:20.297Z,14.10
2023-04-14T10:27:49.105Z,14.10
2023-04-14T10:30:16.984Z,14.50
2023-04-14T10:32:47.323Z,14.50
2023-04-14T10:35:18.654Z,14.60
2023-04-14T10:37:52.105Z,14.20
2023-04-14T10:40:19.182Z,14.00
2023-04-14T10:42:53.370Z,13.80
2023-04-14T10:45:20.554Z,13.80
2023-04-14T10:47:47.867Z,13.70
2023-04-14T10:50:18.092Z,13.70
2023-04-14T10:52:58.967Z,13.60
2023-04-14T10:55:28.058Z,13.80
2023-04-14T10:58:05.939Z,13.80
2023-04-14T11:00:38.253Z,13.90
2023-04-14T11:03:11.078Z,13.90
2023-04-14T11:05:48.212Z,13.90
2023-04-14T11:08:26.669Z,14.10
2023-04-14T11:11:07.144Z,14.50
2023-04-14T11:13:34.850Z,14.30
2023-04-14T11:16:05.317Z,14.50
2023-04-14T11:18:38.838Z,14.30
2023-04-14T11:21:10.701Z,14.20
2023-04-14T11:23:38.518Z,14.80
2023-04-14T11:26:06.559Z,14.90
2023-04-14T11:28:36.260Z,15.00
2023-04-14T11:31:05.524Z,14.80
2023-04-14T11:33:34.702Z,14.40
2023-04-14T11:36:02.939Z,14.20
2023-04-14T11:38:30.570Z,14.10
2023-04-14T11:40:57.580Z,14.80
2023-04-14T11:43:25.062Z,15.50
2023-04-14T11:45:52.610Z,15.20
2023-04-14T11:48:20.410Z,15.40
2023-04-14T11:50:48.372Z,16.00
2023-04-14T11:53:17.648Z,15.90
2023-04-14T11:55:46.991Z,16.00
2023-04-14T11:58:15.321Z,15.70
2023-04-14T12:00:43.569Z,15.90
2023-04-14T12:03:11.055Z,16.10
2023-04-14T12:05:38.053Z,15.60
2023-04-14T12:08:12.217Z,15.10
2023-04-14T12:10:42.847Z,14.80
2023-04-14T12:13:11.377Z,15.50
2023-04-14T12:15:40.759Z,15.90
2023-04-14T12:18:09.597Z,16.30
2023-04-14T12:20:47.403Z,16.80
2023-04-14T12:23:15.852Z,17.10
2023-04-14T12:25:42.927Z,16.60
2023-04-14T12:28:09.968Z,16.50
2023-04-14T12:30:37.682Z,15.60
2023-04-14T12:33:12.225Z,15.70
2023-04-14T12:35:40.855Z,15.80
2023-04-14T12:38:13.411Z,16.20
2023-04-14T12:40:45.923Z,16.00
2023-04-14T12:43:14.045Z,16.00
2023-04-14T12:45:46.425Z,15.90
2023-04-14T12:48:14.226Z,16.40
2023-04-14T12:50:41.081Z,16.50
2023-04-14T12:53:28.535Z,16.80
2023-04-14T12:56:10.467Z,17.00
2023-04-14T12:58:39.009Z,16.80
2023-04-14T13:01:10.651Z,17.00
2023-04-14T13:03:52.581Z,17.20
2023-04-14T13:06:21.416Z,17.40
2023-04-14T13:08:53.037Z,17.20
2023-04-14T13:11:21.748Z,16.60
2023-04-14T13:13:49.016Z,16.90
2023-04-14T13:16:20.542Z,17.00
2023-04-14T13:18:49.154Z,17.40
2023-04-14T13:21:16.751Z,18.10
2023-04-14T13:23:43.885Z,17.40
2023-04-14T13:26:10.880Z,16.40
2023-04-14T13:28:37.934Z,16.40
2023-04-14T13:31:04.995Z,17.20
2023-04-14T13:33:32.972Z,17.40
2023-04-14T13:36:01.134Z,17.20
2023-04-14T13:38:28.162Z,17.10
2023-04-14T13:40:55.076Z,17.00
2023-04-14T13:43:23.291Z,16.80
2023-04-14T13:45:50.234Z,16.90
2023-04-14T13:48:17.264Z,17.30
2023-04-14T13:50:44.147Z,17.10
2023-04-14T13:53:12.396Z,16.90
2023-04-14T13:55:39.458Z,16.90
2023-04-14T13:58:06.430Z,17.30
2023-04-14T14:00:33.258Z,17.40
2023-04-14T14:03:00.583Z,17.30
2023-04-14T14:05:27.632Z,17.60
2023-04-14T14:07:55.741Z,17.60
2023-04-14T14:10:22.694Z,17.40
2023-04-14T14:12:49.476Z,17.00
2023-04-14T14:15:16.651Z,17.40
2023-04-14T14:17:43.512Z,17.90
2023-04-14T14:20:10.710Z,18.00
2023-04-14T14:22:37.584Z,17.90
2023-04-14T14:25:18.379Z,18.10
2023-04-14T14:27:47.020Z,18.50
2023-04-14T14:30:14.021Z,18.20
2023-04-14T14:32:40.934Z,17.40
2023-04-14T14:35:08.297Z,17.10
2023-04-14T14:37:35.215Z,16.80
2023-04-14T14:40:02.129Z,16.90
2023-04-14T14:42:31.822Z,16.90
2023-04-14T14:44:59.641Z,16.50
2023-04-14T14:47:28.720Z,16.40
2023-04-14T14:50:01.710Z,16.40
2023-04-14T14:52:34.145Z,16.50
2023-04-14T14:55:01.477Z,16.40
2023-04-14T14:57:29.738Z,16.60
2023-04-14T14:59:57.213Z,16.50
2023-04-14T15:02:25.642Z,16.40
2023-04-14T15:04:53.310Z,16.00
2023-04-14T15:07:20.835Z,16.30
2023-04-14T15:09:47.958Z,16.30
2023-04-14T15:12:14.815Z,16.20
2023-04-14T15:14:41.709Z,16.10
2023-04-14T15:17:08.579Z,15.80
2023-04-14T15:19:35.531Z,15.70
2023-04-14T15:22:02.359Z,15.90
2023-04-14T15:24:29.189Z,16.20
2023-04-14T15:26:56.286Z,16.50
2023-04-14T15:29:25.909Z,16.80
2023-04-14T15:31:52.843Z,16.70
2023-04-14T15:34:19.718Z,16.50
2023-04-14T15:36:46.529Z,16.40
2023-04-14T15:39:13.355Z,16.70
2023-04-14T15:41:40.998Z,16.90
2023-04-14T15:44:07.801Z,16.70
2023-04-14T15:46:34.797Z,16.50
2023-04-14T15:49:01.597Z,16.40
2023-04-14T15:51:28.367Z,16.10
2023-04-14T15:53:55.353Z,16.00
2023-04-14T15:56:23.609Z,16.00
2023-04-14T15:58:50.684Z,16.00
2023-04-14T16:01:17.729Z,15.90
2023-04-14T16:03:44.911Z,16.00
2023-04-14T16:06:12.348Z,16.00
2023-04-14T16:08:39.409Z,15.80
2023-04-14T16:11:06.265Z,15.50
2023-04-14T16:13:33.210Z,15.20
2023-04-14T16:16:00.207Z,15.20
2023-04-14T16:18:27.174Z,15.30
2023-04-14T16:20:54.101Z,15.10
2023-04-14T16:23:21.988Z,15.00
2023-04-14T16:25:51.909Z,15.00
2023-04-14T16:28:19.008Z,15.10
2023-04-14T16:30:45.875Z,14.90
2023-04-14T16:33:13.004Z,14.90
2023-04-14T16:35:40.533Z,14.90
2023-04-14T16:38:08.812Z,15.00
2023-04-14T16:40:36.565Z,15.10
2023-04-14T16:43:04.527Z,15.10
2023-04-14T16:45:32.378Z,15.10
2023-04-14T16:47:59.553Z,15.20
2023-04-14T16:50:26.983Z,15.20
2023-04-14T16:52:53.895Z,15.20
2023-04-14T16:55:20.743Z,15.20
2023-04-14T16:57:47.576Z,15.00
2023-04-14T17:00:14.801Z,15.00
2023-04-14T17:02:41.847Z,15.00
2023-04-14T17:05:10.573Z,15.10
2023-04-14T17:07:37.707Z,15.10
2023-04-14T17:10:05.173Z,15.00
2023-04-14T17:12:32.236Z,15.10
2023-04-14T17:15:00.355Z,15.00
2023-04-14T17:17:28.513Z,15.00
2023-04-14T17:19:56.839Z,14.90
2023-04-14T17:22:24.647Z,14.80
2023-04-14T17:24:52.191Z,14.80
2023-04-14T17:27:19.370Z,14.80
2023-04-14T17:29:46.458Z,14.90
2023-04-14T17:32:13.672Z,14.90
2023-04-14T17:34:40.557Z,14.80
2023-04-14T17:37:07.445Z,14.90
2023-04-14T17:39:34.493Z,14.80
2023-04-14T17:42:01.568Z,14.90
2023-04-14T17:44:33.321Z,14.90
2023-04-14T17:47:11.133Z,14.90
2023-04-14T17:49:38.322Z,14.80
2023-04-14T17:52:07.030Z,14.90
2023-04-14T17:54:34.356Z,14.80
2023-04-14T17:57:01.141Z,14.70
2023-04-14T17:59:28.041Z,14.80
2023-04-14T18:01:55.079Z,14.80
2023-04-14T18:04:22.103Z,14.80
2023-04-14T18:06:49.106Z,14.90
2023-04-14T18:09:15.886Z,14.80
2023-04-14T18:11:42.826Z,14.80
2023-04-14T18:14:09.632Z,14.80
2023-04-14T18:16:37.454Z,14.80
2023-04-14T18:19:04.807Z,14.90
2023-04-14T18:21:31.744Z,14.90
2023-04-14T18:26:28.398Z,14.80
2023-04-14T18:28:57.404Z,14.80
2023-04-14T18:31:25.217Z,14.70
2023-04-14T18:33:52.085Z,14.70
2023-04-14T18:36:18.892Z,14.80
2023-04-14T18:38:45.726Z,14.70
2023-04-14T18:41:12.570Z,14.70
2023-04-14T18:43:39.486Z,14.70
2023-04-14T18:46:06.593Z,14.60
2023-04-14T18:48:33.556Z,14.50
2023-04-14T18:51:04.137Z,14.40
2023-04-14T18:53:31.831Z,14.30
2023-04-14T18:55:58.794Z,14.30
2023-04-14T18:58:25.733Z,14.30
2023-04-14T19:00:52.631Z,14.30
2023-04-14T19:03:19.637Z,14.10
2023-04-14T19:05:47.254Z,14.00
2023-04-14T19:08:14.097Z,14.00
2023-04-14T19:10:41.098Z,14.10
2023-04-14T19:13:08.055Z,14.10
2023-04-14T19:15:34.866Z,14.10
2023-04-14T19:18:03.673Z,14.00
2023-04-14T19:20:30.960Z,13.90
2023-04-14T19:22:58.518Z,13.90
2023-04-14T19:25:25.422Z,13.90
2023-04-14T19:27:52.311Z,13.80
2023-04-14T19:30:19.600Z,14.00
2023-04-14T19:32:46.590Z,13.90
2023-04-14T19:35:13.534Z,13.90
2023-04-14T19:37:40.606Z,13.80
2023-04-14T19:40:08.170Z,13.70
2023-04-14T19:42:35.006Z,13.60
2023-04-14T19:45:02.069Z,13.60
2023-04-14T19:47:28.954Z,13.50
2023-04-14T19:49:59.541Z,13.60
2023-04-14T19:52:26.886Z,13.50
2023-04-14T19:54:55.009Z,13.40
2023-04-14T19:57:22.468Z,13.50
2023-04-14T19:59:49.266Z,13.30
2023-04-14T20:02:16.415Z,13.30
2023-04-14T20:04:45.064Z,13.30
2023-04-14T20:07:12.031Z,13.20
2023-04-14T20:09:44.737Z,13.20
2023-04-14T20:12:11.582Z,13.10
2023-04-14T20:14:39.064Z,13.10
2023-04-14T20:17:06.261Z,13.10
2023-04-14T20:19:33.129Z,13.00
2023-04-14T20:21:59.972Z,13.20
2023-04-14T20:24:26.826Z,13.20
2023-04-14T20:26:53.581Z,13.20
2023-04-14T20:29:20.432Z,13.30
2023-04-14T20:31:48.381Z,13.20
2023-04-14T20:34:15.226Z,13.20
2023-04-14T20:36:44.864Z,13.10
2023-04-14T20:39:11.838Z,13.10
2023-04-14T20:41:38.772Z,13.20
2023-04-14T20:44:06.391Z,13.10
2023-04-14T20:46:33.705Z,13.10
2023-04-14T20:49:01.347Z,13.00
2023-04-14T20:51:29.051Z,13.00
2023-04-14T20:53:56.849Z,13.10
2023-04-14T20:56:27.216Z,13.00
2023-04-14T20:58:54.212Z,13.00
2023-04-14T21:01:21.328Z,13.00
2023-04-14T21:03:48.489Z,13.10
2023-04-14T21:06:16.157Z,13.00
2023-04-14T21:08:43.034Z,13.00
2023-04-14T21:11:17.093Z,13.00
2023-04-14T21:15:30.284Z,13.00
2023-04-14T21:16:35.741Z,12.90
2023-04-14T21:19:04.196Z,12.90
2023-04-14T21:21:31.838Z,12.80
2023-04-14T21:23:58.901Z,12.70
2023-04-14T21:26:26.951Z,12.70
2023-04-14T21:28:54.108Z,12.70
2023-04-14T21:31:21.111Z,12.60
2023-04-14T21:33:47.966Z,12.60
2023-04-14T21:36:14.918Z,12.60
2023-04-14T21:38:41.754Z,12.50
2023-04-14T21:41:08.753Z,12.50
2023-04-14T21:43:36.764Z,12.50
2023-04-14T21:46:05.242Z,12.50
2023-04-14T21:48:32.345Z,12.50
2023-04-14T21:50:59.260Z,12.40
2023-04-14T21:53:26.310Z,12.40
2023-04-14T21:56:09.278Z,12.30
2023-04-14T21:58:38.523Z,12.30
2023-04-14T22:01:05.544Z,12.20
2023-04-14T22:03:33.263Z,12.20
2023-04-14T22:06:00.319Z,12.20
2023-04-14T22:08:27.282Z,12.10
2023-04-14T22:10:54.923Z,12.10
2023-04-14T22:13:21.887Z,12.10
2023-04-14T22:15:49.925Z,12.00
2023-04-14T22:18:17.222Z,11.90
2023-04-14T22:20:45.180Z,11.90
2023-04-14T22:23:13.303Z,11.90
2023-04-14T22:25:40.335Z,11.90
2023-04-14T22:28:07.563Z,11.90
2023-04-14T22:30:35.275Z,12.00
2023-04-14T22:33:02.542Z,11.90
2023-04-14T22:35:30.167Z,11.80
2023-04-14T22:37:57.437Z,11.90
2023-04-14T22:40:24.640Z,11.80
2023-04-14T22:42:51.808Z,11.80
2023-04-14T22:45:18.784Z,11.70
2023-04-14T22:47:45.938Z,11.60
2023-04-14T22:50:13.044Z,11.70
2023-04-14T22:52:39.888Z,11.70
2023-04-14T22:55:07.797Z,11.60
2023-04-14T22:57:34.591Z,11.60
2023-04-14T23:00:01.641Z,11.50
2023-04-14T23:02:28.823Z,11.40
2023-04-14T23:04:55.863Z,11.40
2023-04-14T23:07:22.840Z,11.30
2023-04-14T23:09:49.806Z,11.30
2023-04-14T23:12:17.222Z,11.30
2023-04-14T23:14:44.033Z,11.30
2023-04-14T23:17:11.809Z,11.30
2023-04-14T23:19:39.298Z,11.20
2023-04-14T23:22:06.121Z,11.20
2023-04-14T23:24:33.014Z,11.30
2023-04-14T23:27:00.464Z,11.30
2023-04-14T23:29:27.645Z,11.20
2023-04-14T23:31:54.630Z,11.10
2023-04-14T23:34:21.626Z,11.10
2023-04-14T23:36:48.473Z,11.10
2023-04-14T23:39:15.399Z,11.10
2023-04-14T23:41:42.652Z,11.00
2023-04-14T23:44:09.536Z,10.90
2023-04-14T23:46:36.525Z,10.70
2023-04-14T23:49:11.268Z,10.70
2023-04-14T23:51:50.746Z,10.70
2023-04-14T23:54:17.625Z,10.70
2023-04-14T23:56:44.473Z,10.70
2023-04-14T23:59:11.926Z,10.70
